sensor_id;sensor_type;location;lat;lon;timestamp;temperature;humidity
19692;DHT22;42748;50.016;19.890;2022-12-17T00:02:31;-0.90;99.90
19692;DHT22;42748;50.016;19.890;2022-12-17T00:05:17;-1.00;99.90
19692;DHT22;42748;50.016;19.890;2022-12-17T00:08:03;-1.00;99.90
19692;DHT22;42748;50.016;19.890;2022-12-17T00:10:49;-1.00;99.90
19692;DHT22;42748;50.016;19.890;2022-12-17T00:13:35;-1.00;99.90
19692;DHT22;42748;50.016;19.890;2022-12-17T00:16:21;-1.00;99.90
19692;DHT22;42748;50.016;19.890;2022-12-17T00:19:07;-1.00;99.90
19692;DHT22;42748;50.016;19.890;2022-12-17T00:21:53;-1.10;99.90
19692;DHT22;42748;50.016;19.890;2022-12-17T00:24:39;-1.10;99.90
19692;DHT22;42748;50.016;19.890;2022-12-17T00:27:24;-1.20;99.90
19692;DHT22;42748;50.016;19.890;2022-12-17T00:30:11;-1.20;99.90
19692;DHT22;42748;50.016;19.890;2022-12-17T00:32:57;-1.20;99.90
19692;DHT22;42748;50.016;19.890;2022-12-17T00:35:42;-1.20;99.90
19692;DHT22;42748;50.016;19.890;2022-12-17T00:38:28;-1.20;99.90
19692;DHT22;42748;50.016;19.890;2022-12-17T00:41:13;-1.20;99.90
19692;DHT22;42748;50.016;19.890;2022-12-17T00:43:59;-1.30;99.90
19692;DHT22;42748;50.016;19.890;2022-12-17T00:46:44;-1.30;99.90
19692;DHT22;42748;50.016;19.890;2022-12-17T00:49:30;-1.30;99.90
19692;DHT22;42748;50.016;19.890;2022-12-17T00:52:16;-1.30;99.90
19692;DHT22;42748;50.016;19.890;2022-12-17T00:55:03;-1.40;99.90
19692;DHT22;42748;50.016;19.890;2022-12-17T00:57:56;-1.40;99.90
19692;DHT22;42748;50.016;19.890;2022-12-17T01:00:42;-1.40;99.90
19692;DHT22;42748;50.016;19.890;2022-12-17T01:03:28;-1.40;99.90
19692;DHT22;42748;50.016;19.890;2022-12-17T01:06:13;-1.40;99.90
19692;DHT22;42748;50.016;19.890;2022-12-17T01:09:00;-1.40;99.90
19692;DHT22;42748;50.016;19.890;2022-12-17T01:11:46;-1.40;99.90
19692;DHT22;42748;50.016;19.890;2022-12-17T01:14:32;-1.40;99.90
19692;DHT22;42748;50.016;19.890;2022-12-17T01:17:18;-1.40;99.90
19692;DHT22;42748;50.016;19.890;2022-12-17T01:20:04;-1.40;99.90
19692;DHT22;42748;50.016;19.890;2022-12-17T01:22:50;-1.40;99.90
19692;DHT22;42748;50.016;19.890;2022-12-17T01:25:36;-1.40;99.90
19692;DHT22;42748;50.016;19.890;2022-12-17T01:28:23;-1.40;99.90
19692;DHT22;42748;50.016;19.890;2022-12-17T01:31:10;-1.40;99.90
19692;DHT22;42748;50.016;19.890;2022-12-17T01:34:01;-1.40;99.90
19692;DHT22;42748;50.016;19.890;2022-12-17T01:36:46;-1.50;99.90
19692;DHT22;42748;50.016;19.890;2022-12-17T01:39:32;-1.50;99.90
19692;DHT22;42748;50.016;19.890;2022-12-17T01:42:18;-1.40;99.90
19692;DHT22;42748;50.016;19.890;2022-12-17T01:45:05;-1.50;99.90
19692;DHT22;42748;50.016;19.890;2022-12-17T01:47:56;-1.50;99.90
19692;DHT22;42748;50.016;19.890;2022-12-17T01:50:49;-1.50;99.90
19692;DHT22;42748;50.016;19.890;2022-12-17T01:53:40;-1.50;99.90
19692;DHT22;42748;50.016;19.890;2022-12-17T01:56:27;-1.50;99.90
19692;DHT22;42748;50.016;19.890;2022-12-17T01:59:13;-1.60;99.90
19692;DHT22;42748;50.016;19.890;2022-12-17T02:02:00;-1.60;99.90
19692;DHT22;42748;50.016;19.890;2022-12-17T02:04:46;-1.60;99.90
19692;DHT22;42748;50.016;19.890;2022-12-17T02:11:06;-1.60;99.90
19692;DHT22;42748;50.016;19.890;2022-12-17T02:14:21;-1.70;99.90
19692;DHT22;42748;50.016;19.890;2022-12-17T02:17:10;-1.70;99.90
19692;DHT22;42748;50.016;19.890;2022-12-17T02:20:18;-1.70;99.90
19692;DHT22;42748;50.016;19.890;2022-12-17T02:26:32;-1.70;99.90
19692;DHT22;42748;50.016;19.890;2022-12-17T02:29:21;-1.70;99.90
19692;DHT22;42748;50.016;19.890;2022-12-17T02:32:09;-1.80;99.90
19692;DHT22;42748;50.016;19.890;2022-12-17T02:34:57;-1.80;99.90
19692;DHT22;42748;50.016;19.890;2022-12-17T02:37:48;-1.80;99.90
19692;DHT22;42748;50.016;19.890;2022-12-17T02:40:35;-1.80;99.90
19692;DHT22;42748;50.016;19.890;2022-12-17T02:43:23;-1.80;99.90
19692;DHT22;42748;50.016;19.890;2022-12-17T02:46:09;-1.80;99.90
19692;DHT22;42748;50.016;19.890;2022-12-17T02:48:56;-1.80;99.90
19692;DHT22;42748;50.016;19.890;2022-12-17T02:51:42;-1.90;99.90
19692;DHT22;42748;50.016;19.890;2022-12-17T02:54:32;-1.90;99.90
19692;DHT22;42748;50.016;19.890;2022-12-17T02:57:19;-1.90;99.90
19692;DHT22;42748;50.016;19.890;2022-12-17T03:00:10;-1.90;99.90
19692;DHT22;42748;50.016;19.890;2022-12-17T03:02:59;-2.00;99.90
19692;DHT22;42748;50.016;19.890;2022-12-17T03:05:45;-1.90;99.90
19692;DHT22;42748;50.016;19.890;2022-12-17T03:08:32;-1.90;99.90
19692;DHT22;42748;50.016;19.890;2022-12-17T03:11:18;-1.80;99.90
19692;DHT22;42748;50.016;19.890;2022-12-17T03:14:04;-1.80;99.90
19692;DHT22;42748;50.016;19.890;2022-12-17T03:16:50;-1.80;99.90
19692;DHT22;42748;50.016;19.890;2022-12-17T03:19:35;-1.80;99.90
19692;DHT22;42748;50.016;19.890;2022-12-17T03:22:21;-1.80;99.90
19692;DHT22;42748;50.016;19.890;2022-12-17T03:25:07;-1.80;99.90
19692;DHT22;42748;50.016;19.890;2022-12-17T03:27:53;-1.80;99.90
19692;DHT22;42748;50.016;19.890;2022-12-17T03:30:38;-1.80;99.90
19692;DHT22;42748;50.016;19.890;2022-12-17T03:33:24;-1.90;99.90
19692;DHT22;42748;50.016;19.890;2022-12-17T03:36:11;-1.90;99.90
19692;DHT22;42748;50.016;19.890;2022-12-17T03:38:57;-1.90;99.90
19692;DHT22;42748;50.016;19.890;2022-12-17T03:41:42;-1.90;99.90
19692;DHT22;42748;50.016;19.890;2022-12-17T03:44:28;-1.90;99.90
19692;DHT22;42748;50.016;19.890;2022-12-17T03:47:14;-2.00;99.90
19692;DHT22;42748;50.016;19.890;2022-12-17T03:50:00;-2.00;99.90
19692;DHT22;42748;50.016;19.890;2022-12-17T03:52:45;-2.00;99.90
19692;DHT22;42748;50.016;19.890;2022-12-17T03:55:31;-1.90;99.90
19692;DHT22;42748;50.016;19.890;2022-12-17T03:58:17;-2.00;99.90
19692;DHT22;42748;50.016;19.890;2022-12-17T04:01:03;-1.90;99.90
19692;DHT22;42748;50.016;19.890;2022-12-17T04:03:49;-2.00;99.90
19692;DHT22;42748;50.016;19.890;2022-12-17T04:06:34;-2.00;99.90
19692;DHT22;42748;50.016;19.890;2022-12-17T04:09:20;-1.90;99.90
19692;DHT22;42748;50.016;19.890;2022-12-17T04:12:06;-1.90;99.90
19692;DHT22;42748;50.016;19.890;2022-12-17T04:14:51;-1.90;99.90
19692;DHT22;42748;50.016;19.890;2022-12-17T04:17:37;-1.90;99.90
19692;DHT22;42748;50.016;19.890;2022-12-17T04:20:23;-2.00;99.90
19692;DHT22;42748;50.016;19.890;2022-12-17T04:23:08;-2.00;99.90
19692;DHT22;42748;50.016;19.890;2022-12-17T04:25:54;-2.00;99.90
19692;DHT22;42748;50.016;19.890;2022-12-17T04:28:39;-2.00;99.90
19692;DHT22;42748;50.016;19.890;2022-12-17T04:31:25;-2.00;99.90
19692;DHT22;42748;50.016;19.890;2022-12-17T04:34:11;-2.00;99.90
19692;DHT22;42748;50.016;19.890;2022-12-17T04:36:56;-1.90;99.90
19692;DHT22;42748;50.016;19.890;2022-12-17T04:39:42;-1.90;99.90
19692;DHT22;42748;50.016;19.890;2022-12-17T04:42:27;-2.00;99.90
19692;DHT22;42748;50.016;19.890;2022-12-17T04:45:13;-2.00;99.90
19692;DHT22;42748;50.016;19.890;2022-12-17T04:48:03;-2.00;99.90
19692;DHT22;42748;50.016;19.890;2022-12-17T04:50:50;-2.00;99.90
19692;DHT22;42748;50.016;19.890;2022-12-17T04:53:35;-2.00;99.90
19692;DHT22;42748;50.016;19.890;2022-12-17T04:56:21;-2.00;99.90
19692;DHT22;42748;50.016;19.890;2022-12-17T04:59:07;-2.00;99.90
19692;DHT22;42748;50.016;19.890;2022-12-17T05:01:52;-2.00;99.90
19692;DHT22;42748;50.016;19.890;2022-12-17T05:04:38;-2.00;99.90
19692;DHT22;42748;50.016;19.890;2022-12-17T05:07:24;-2.10;99.90
19692;DHT22;42748;50.016;19.890;2022-12-17T05:10:10;-2.00;99.90
19692;DHT22;42748;50.016;19.890;2022-12-17T05:12:59;-2.00;99.90
19692;DHT22;42748;50.016;19.890;2022-12-17T05:15:46;-2.00;99.90
19692;DHT22;42748;50.016;19.890;2022-12-17T05:18:31;-2.00;99.90
19692;DHT22;42748;50.016;19.890;2022-12-17T05:21:17;-2.00;99.90
19692;DHT22;42748;50.016;19.890;2022-12-17T05:24:02;-2.00;99.90
19692;DHT22;42748;50.016;19.890;2022-12-17T05:26:48;-2.10;99.90
19692;DHT22;42748;50.016;19.890;2022-12-17T05:29:34;-2.10;99.90
19692;DHT22;42748;50.016;19.890;2022-12-17T05:32:20;-2.10;99.90
19692;DHT22;42748;50.016;19.890;2022-12-17T05:35:06;-2.10;99.90
19692;DHT22;42748;50.016;19.890;2022-12-17T05:37:52;-2.00;99.90
19692;DHT22;42748;50.016;19.890;2022-12-17T05:40:37;-2.00;99.90
19692;DHT22;42748;50.016;19.890;2022-12-17T05:43:23;-2.00;99.90
19692;DHT22;42748;50.016;19.890;2022-12-17T05:46:09;-2.00;99.90
19692;DHT22;42748;50.016;19.890;2022-12-17T05:48:54;-2.10;99.90
19692;DHT22;42748;50.016;19.890;2022-12-17T05:51:40;-2.10;99.90
19692;DHT22;42748;50.016;19.890;2022-12-17T05:54:26;-2.10;99.90
19692;DHT22;42748;50.016;19.890;2022-12-17T05:57:11;-2.10;99.90
19692;DHT22;42748;50.016;19.890;2022-12-17T05:59:57;-2.10;99.90
19692;DHT22;42748;50.016;19.890;2022-12-17T06:02:43;-2.10;99.90
19692;DHT22;42748;50.016;19.890;2022-12-17T06:05:28;-2.10;99.90
19692;DHT22;42748;50.016;19.890;2022-12-17T06:08:14;-2.20;99.90
19692;DHT22;42748;50.016;19.890;2022-12-17T06:11:00;-2.20;99.90
19692;DHT22;42748;50.016;19.890;2022-12-17T06:13:45;-2.20;99.90
19692;DHT22;42748;50.016;19.890;2022-12-17T06:16:31;-2.20;99.90
19692;DHT22;42748;50.016;19.890;2022-12-17T06:19:17;-2.30;99.90
19692;DHT22;42748;50.016;19.890;2022-12-17T06:22:02;-2.30;99.90
19692;DHT22;42748;50.016;19.890;2022-12-17T06:24:48;-2.30;99.90
19692;DHT22;42748;50.016;19.890;2022-12-17T06:27:33;-2.30;99.90
19692;DHT22;42748;50.016;19.890;2022-12-17T06:30:19;-2.30;99.90
19692;DHT22;42748;50.016;19.890;2022-12-17T06:33:07;-2.30;99.90
19692;DHT22;42748;50.016;19.890;2022-12-17T06:35:53;-2.30;99.90
19692;DHT22;42748;50.016;19.890;2022-12-17T06:38:48;-2.20;99.90
19692;DHT22;42748;50.016;19.890;2022-12-17T06:41:34;-2.20;99.90
19692;DHT22;42748;50.016;19.890;2022-12-17T06:44:29;-2.20;99.90
19692;DHT22;42748;50.016;19.890;2022-12-17T06:47:15;-2.20;99.90
19692;DHT22;42748;50.016;19.890;2022-12-17T06:50:01;-2.30;99.90
19692;DHT22;42748;50.016;19.890;2022-12-17T06:52:47;-2.30;99.90
19692;DHT22;42748;50.016;19.890;2022-12-17T06:55:41;-2.30;99.90
19692;DHT22;42748;50.016;19.890;2022-12-17T06:58:27;-2.40;99.90
19692;DHT22;42748;50.016;19.890;2022-12-17T07:01:13;-2.40;99.90
19692;DHT22;42748;50.016;19.890;2022-12-17T07:03:58;-2.40;99.90
19692;DHT22;42748;50.016;19.890;2022-12-17T07:06:45;-2.40;99.90
19692;DHT22;42748;50.016;19.890;2022-12-17T07:09:30;-2.30;99.90
19692;DHT22;42748;50.016;19.890;2022-12-17T07:12:16;-2.30;99.90
19692;DHT22;42748;50.016;19.890;2022-12-17T07:15:02;-2.30;99.90
19692;DHT22;42748;50.016;19.890;2022-12-17T07:18:02;-2.30;99.90
19692;DHT22;42748;50.016;19.890;2022-12-17T07:20:52;-2.30;99.90
19692;DHT22;42748;50.016;19.890;2022-12-17T07:23:38;-2.30;99.90
19692;DHT22;42748;50.016;19.890;2022-12-17T07:26:23;-2.20;99.90
19692;DHT22;42748;50.016;19.890;2022-12-17T07:29:09;-2.20;99.90
19692;DHT22;42748;50.016;19.890;2022-12-17T07:31:55;-2.20;99.90
19692;DHT22;42748;50.016;19.890;2022-12-17T07:34:40;-2.10;99.90
19692;DHT22;42748;50.016;19.890;2022-12-17T07:37:26;-2.10;99.90
19692;DHT22;42748;50.016;19.890;2022-12-17T07:40:11;-2.00;99.90
19692;DHT22;42748;50.016;19.890;2022-12-17T07:42:57;-2.10;99.90
19692;DHT22;42748;50.016;19.890;2022-12-17T07:45:43;-2.10;99.90
19692;DHT22;42748;50.016;19.890;2022-12-17T07:48:28;-2.10;99.90
19692;DHT22;42748;50.016;19.890;2022-12-17T07:51:14;-2.10;99.90
19692;DHT22;42748;50.016;19.890;2022-12-17T07:54:00;-2.00;99.90
19692;DHT22;42748;50.016;19.890;2022-12-17T07:56:45;-2.00;99.90
19692;DHT22;42748;50.016;19.890;2022-12-17T07:59:31;-1.90;99.90
19692;DHT22;42748;50.016;19.890;2022-12-17T08:02:16;-2.00;99.90
19692;DHT22;42748;50.016;19.890;2022-12-17T08:05:03;-2.10;99.90
19692;DHT22;42748;50.016;19.890;2022-12-17T08:07:48;-2.10;99.90
19692;DHT22;42748;50.016;19.890;2022-12-17T08:10:34;-2.00;99.90
19692;DHT22;42748;50.016;19.890;2022-12-17T08:13:19;-2.00;99.90
19692;DHT22;42748;50.016;19.890;2022-12-17T08:16:05;-2.00;99.90
19692;DHT22;42748;50.016;19.890;2022-12-17T08:18:51;-2.10;99.90
19692;DHT22;42748;50.016;19.890;2022-12-17T08:21:37;-2.00;99.90
19692;DHT22;42748;50.016;19.890;2022-12-17T08:24:23;-2.00;99.90
19692;DHT22;42748;50.016;19.890;2022-12-17T08:27:08;-2.00;99.90
19692;DHT22;42748;50.016;19.890;2022-12-17T08:29:54;-2.00;99.90
19692;DHT22;42748;50.016;19.890;2022-12-17T08:32:40;-2.00;99.90
19692;DHT22;42748;50.016;19.890;2022-12-17T08:35:25;-2.00;99.90
19692;DHT22;42748;50.016;19.890;2022-12-17T08:38:10;-2.00;99.90
19692;DHT22;42748;50.016;19.890;2022-12-17T08:40:59;-1.90;99.90
19692;DHT22;42748;50.016;19.890;2022-12-17T08:43:44;-1.90;99.90
19692;DHT22;42748;50.016;19.890;2022-12-17T08:46:30;-1.90;99.90
19692;DHT22;42748;50.016;19.890;2022-12-17T08:49:16;-1.90;99.90
19692;DHT22;42748;50.016;19.890;2022-12-17T08:52:01;-1.80;99.90
19692;DHT22;42748;50.016;19.890;2022-12-17T08:54:49;-1.90;99.90
19692;DHT22;42748;50.016;19.890;2022-12-17T08:57:34;-1.80;99.90
19692;DHT22;42748;50.016;19.890;2022-12-17T09:00:20;-1.80;99.90
19692;DHT22;42748;50.016;19.890;2022-12-17T09:03:07;-1.80;99.90
19692;DHT22;42748;50.016;19.890;2022-12-17T09:05:53;-1.80;99.90
19692;DHT22;42748;50.016;19.890;2022-12-17T09:08:38;-1.70;99.90
19692;DHT22;42748;50.016;19.890;2022-12-17T09:11:24;-1.60;99.90
19692;DHT22;42748;50.016;19.890;2022-12-17T09:14:10;-1.60;99.90
19692;DHT22;42748;50.016;19.890;2022-12-17T09:16:56;-1.50;99.90
19692;DHT22;42748;50.016;19.890;2022-12-17T09:19:41;-1.40;99.90
19692;DHT22;42748;50.016;19.890;2022-12-17T09:22:27;-1.60;99.90
19692;DHT22;42748;50.016;19.890;2022-12-17T09:25:13;-1.50;99.90
19692;DHT22;42748;50.016;19.890;2022-12-17T09:28:02;-1.40;99.90
19692;DHT22;42748;50.016;19.890;2022-12-17T09:30:47;-1.30;99.90
19692;DHT22;42748;50.016;19.890;2022-12-17T09:33:33;-1.30;99.90
19692;DHT22;42748;50.016;19.890;2022-12-17T09:36:19;-1.10;99.90
19692;DHT22;42748;50.016;19.890;2022-12-17T09:39:05;-1.00;99.90
19692;DHT22;42748;50.016;19.890;2022-12-17T09:42:14;-1.00;99.90
19692;DHT22;42748;50.016;19.890;2022-12-17T09:45:17;-1.10;99.90
19692;DHT22;42748;50.016;19.890;2022-12-17T09:51:23;-1.30;99.90
19692;DHT22;42748;50.016;19.890;2022-12-17T09:57:05;-1.30;99.90
19692;DHT22;42748;50.016;19.890;2022-12-17T09:59:55;-1.40;99.90
19692;DHT22;42748;50.016;19.890;2022-12-17T10:02:40;-1.50;99.90
19692;DHT22;42748;50.016;19.890;2022-12-17T10:05:28;-1.60;99.90
19692;DHT22;42748;50.016;19.890;2022-12-17T10:08:18;-1.50;99.90
19692;DHT22;42748;50.016;19.890;2022-12-17T10:11:14;-1.50;99.90
19692;DHT22;42748;50.016;19.890;2022-12-17T10:14:05;-1.50;99.90
19692;DHT22;42748;50.016;19.890;2022-12-17T10:16:55;-1.50;99.90
19692;DHT22;42748;50.016;19.890;2022-12-17T10:19:41;-1.50;99.90
19692;DHT22;42748;50.016;19.890;2022-12-17T10:22:27;-1.60;99.90
19692;DHT22;42748;50.016;19.890;2022-12-17T10:28:11;-1.60;99.90
19692;DHT22;42748;50.016;19.890;2022-12-17T10:30:57;-1.60;99.90
19692;DHT22;42748;50.016;19.890;2022-12-17T10:33:45;-1.60;99.90
19692;DHT22;42748;50.016;19.890;2022-12-17T10:36:31;-1.60;99.90
19692;DHT22;42748;50.016;19.890;2022-12-17T10:39:20;-1.60;99.90
19692;DHT22;42748;50.016;19.890;2022-12-17T10:45:26;-1.80;99.90
19692;DHT22;42748;50.016;19.890;2022-12-17T10:48:18;-1.80;99.90
19692;DHT22;42748;50.016;19.890;2022-12-17T10:51:05;-1.80;99.90
19692;DHT22;42748;50.016;19.890;2022-12-17T10:54:08;-1.80;99.90
19692;DHT22;42748;50.016;19.890;2022-12-17T10:56:56;-1.80;99.90
19692;DHT22;42748;50.016;19.890;2022-12-17T10:59:44;-1.80;99.90
19692;DHT22;42748;50.016;19.890;2022-12-17T11:02:30;-1.80;99.90
19692;DHT22;42748;50.016;19.890;2022-12-17T11:05:34;-1.80;99.90
19692;DHT22;42748;50.016;19.890;2022-12-17T11:08:25;-1.80;99.90
19692;DHT22;42748;50.016;19.890;2022-12-17T11:11:13;-1.80;99.90
19692;DHT22;42748;50.016;19.890;2022-12-17T11:14:00;-1.90;99.90
19692;DHT22;42748;50.016;19.890;2022-12-17T11:16:59;-1.90;99.90
19692;DHT22;42748;50.016;19.890;2022-12-17T11:20:00;-2.00;99.90
19692;DHT22;42748;50.016;19.890;2022-12-17T11:22:53;-2.00;99.90
19692;DHT22;42748;50.016;19.890;2022-12-17T11:28:37;-2.10;99.90
19692;DHT22;42748;50.016;19.890;2022-12-17T11:32:43;-2.10;99.90
19692;DHT22;42748;50.016;19.890;2022-12-17T11:44:00;-2.30;99.90
19692;DHT22;42748;50.016;19.890;2022-12-17T11:50:19;-2.20;99.90
19692;DHT22;42748;50.016;19.890;2022-12-17T11:56:46;-2.30;99.90
19692;DHT22;42748;50.016;19.890;2022-12-17T11:59:39;-2.20;99.90
19692;DHT22;42748;50.016;19.890;2022-12-17T12:06:36;-2.10;99.90
19692;DHT22;42748;50.016;19.890;2022-12-17T12:10:03;-2.20;99.90
19692;DHT22;42748;50.016;19.890;2022-12-17T12:16:11;-2.20;99.90
19692;DHT22;42748;50.016;19.890;2022-12-17T12:19:33;-2.10;99.90
19692;DHT22;42748;50.016;19.890;2022-12-17T12:25:50;-2.30;99.90
19692;DHT22;42748;50.016;19.890;2022-12-17T12:31:52;-2.30;99.90
19692;DHT22;42748;50.016;19.890;2022-12-17T12:34:41;-2.30;99.90
19692;DHT22;42748;50.016;19.890;2022-12-17T12:37:28;-2.30;99.90
19692;DHT22;42748;50.016;19.890;2022-12-17T12:40:22;-2.30;99.90
19692;DHT22;42748;50.016;19.890;2022-12-17T12:43:19;-2.30;99.90
19692;DHT22;42748;50.016;19.890;2022-12-17T12:49:23;-2.30;99.90
19692;DHT22;42748;50.016;19.890;2022-12-17T12:52:13;-2.30;99.90
19692;DHT22;42748;50.016;19.890;2022-12-17T12:55:02;-2.40;99.90
19692;DHT22;42748;50.016;19.890;2022-12-17T12:58:00;-2.40;99.90
19692;DHT22;42748;50.016;19.890;2022-12-17T13:14:52;-2.40;99.90
19692;DHT22;42748;50.016;19.890;2022-12-17T13:25:08;-2.30;99.90
19692;DHT22;42748;50.016;19.890;2022-12-17T13:30:18;-2.40;99.90
19692;DHT22;42748;50.016;19.890;2022-12-17T13:41:11;-2.40;99.90
19692;DHT22;42748;50.016;19.890;2022-12-17T13:43:48;-2.30;99.90
19692;DHT22;42748;50.016;19.890;2022-12-17T13:46:18;-2.40;99.90
19692;DHT22;42748;50.016;19.890;2022-12-17T13:48:53;-2.30;99.90
19692;DHT22;42748;50.016;19.890;2022-12-17T13:51:21;-2.30;99.90
19692;DHT22;42748;50.016;19.890;2022-12-17T13:53:57;-2.30;99.90
19692;DHT22;42748;50.016;19.890;2022-12-17T13:56:28;-2.30;99.90
19692;DHT22;42748;50.016;19.890;2022-12-17T13:58:57;-2.30;99.90
19692;DHT22;42748;50.016;19.890;2022-12-17T14:01:46;-2.40;99.90
19692;DHT22;42748;50.016;19.890;2022-12-17T14:04:25;-2.40;99.90
19692;DHT22;42748;50.016;19.890;2022-12-17T14:06:55;-2.40;99.90
19692;DHT22;42748;50.016;19.890;2022-12-17T14:09:45;-2.40;99.90
19692;DHT22;42748;50.016;19.890;2022-12-17T14:12:15;-2.40;99.90
19692;DHT22;42748;50.016;19.890;2022-12-17T14:14:56;-2.30;99.90
19692;DHT22;42748;50.016;19.890;2022-12-17T14:17:26;-2.40;99.90
19692;DHT22;42748;50.016;19.890;2022-12-17T14:22:41;-2.40;99.90
19692;DHT22;42748;50.016;19.890;2022-12-17T14:25:20;-2.40;99.90
19692;DHT22;42748;50.016;19.890;2022-12-17T14:27:59;-2.40;99.90
19692;DHT22;42748;50.016;19.890;2022-12-17T14:30:35;-2.40;99.90
19692;DHT22;42748;50.016;19.890;2022-12-17T14:33:30;-2.50;99.90
19692;DHT22;42748;50.016;19.890;2022-12-17T14:35:59;-2.50;99.90
19692;DHT22;42748;50.016;19.890;2022-12-17T14:38:27;-2.50;99.90
19692;DHT22;42748;50.016;19.890;2022-12-17T14:41:11;-2.50;99.90
19692;DHT22;42748;50.016;19.890;2022-12-17T14:43:58;-2.50;99.90
19692;DHT22;42748;50.016;19.890;2022-12-17T14:46:27;-2.50;99.90
19692;DHT22;42748;50.016;19.890;2022-12-17T14:49:00;-2.50;99.90
19692;DHT22;42748;50.016;19.890;2022-12-17T14:51:36;-2.60;99.90
19692;DHT22;42748;50.016;19.890;2022-12-17T14:56:32;-2.60;99.90
19692;DHT22;42748;50.016;19.890;2022-12-17T14:58:59;-2.60;99.90
19692;DHT22;42748;50.016;19.890;2022-12-17T15:01:28;-2.60;99.90
19692;DHT22;42748;50.016;19.890;2022-12-17T15:03:55;-2.60;99.90
19692;DHT22;42748;50.016;19.890;2022-12-17T15:06:22;-2.60;99.90
19692;DHT22;42748;50.016;19.890;2022-12-17T15:08:50;-2.60;99.90
19692;DHT22;42748;50.016;19.890;2022-12-17T15:11:21;-2.60;99.90
19692;DHT22;42748;50.016;19.890;2022-12-17T15:13:49;-2.60;99.90
19692;DHT22;42748;50.016;19.890;2022-12-17T15:16:22;-2.60;99.90
19692;DHT22;42748;50.016;19.890;2022-12-17T15:18:50;-2.60;99.90
19692;DHT22;42748;50.016;19.890;2022-12-17T15:21:17;-2.60;99.90
19692;DHT22;42748;50.016;19.890;2022-12-17T15:23:46;-2.60;99.90
19692;DHT22;42748;50.016;19.890;2022-12-17T15:26:13;-2.60;99.90
19692;DHT22;42748;50.016;19.890;2022-12-17T15:28:41;-2.60;99.90
19692;DHT22;42748;50.016;19.890;2022-12-17T15:31:13;-2.60;99.90
19692;DHT22;42748;50.016;19.890;2022-12-17T15:33:40;-2.60;99.90
19692;DHT22;42748;50.016;19.890;2022-12-17T15:36:10;-2.60;99.90
19692;DHT22;42748;50.016;19.890;2022-12-17T15:38:37;-2.70;99.90
19692;DHT22;42748;50.016;19.890;2022-12-17T15:41:05;-2.70;99.90
19692;DHT22;42748;50.016;19.890;2022-12-17T15:43:52;-2.60;99.90
19692;DHT22;42748;50.016;19.890;2022-12-17T15:46:19;-2.60;99.90
19692;DHT22;42748;50.016;19.890;2022-12-17T15:48:46;-2.60;99.90
19692;DHT22;42748;50.016;19.890;2022-12-17T15:51:16;-2.60;99.90
19692;DHT22;42748;50.016;19.890;2022-12-17T15:53:46;-2.70;99.90
19692;DHT22;42748;50.016;19.890;2022-12-17T15:56:24;-2.70;99.90
19692;DHT22;42748;50.016;19.890;2022-12-17T15:58:52;-2.70;99.90
19692;DHT22;42748;50.016;19.890;2022-12-17T16:01:22;-2.60;99.90
19692;DHT22;42748;50.016;19.890;2022-12-17T16:03:49;-2.60;99.90
19692;DHT22;42748;50.016;19.890;2022-12-17T16:06:17;-2.70;99.90
19692;DHT22;42748;50.016;19.890;2022-12-17T16:08:44;-2.70;99.90
19692;DHT22;42748;50.016;19.890;2022-12-17T16:11:13;-2.70;99.90
19692;DHT22;42748;50.016;19.890;2022-12-17T16:13:42;-2.60;99.90
19692;DHT22;42748;50.016;19.890;2022-12-17T16:16:09;-2.70;99.90
19692;DHT22;42748;50.016;19.890;2022-12-17T16:18:36;-2.70;99.90
19692;DHT22;42748;50.016;19.890;2022-12-17T16:21:07;-2.70;99.90
19692;DHT22;42748;50.016;19.890;2022-12-17T16:23:35;-2.70;99.90
19692;DHT22;42748;50.016;19.890;2022-12-17T16:26:05;-2.60;99.90
19692;DHT22;42748;50.016;19.890;2022-12-17T16:28:32;-2.70;99.90
19692;DHT22;42748;50.016;19.890;2022-12-17T16:31:02;-2.70;99.90
19692;DHT22;42748;50.016;19.890;2022-12-17T16:33:35;-2.70;99.90
19692;DHT22;42748;50.016;19.890;2022-12-17T16:36:03;-2.70;99.90
19692;DHT22;42748;50.016;19.890;2022-12-17T16:38:30;-2.70;99.90
19692;DHT22;42748;50.016;19.890;2022-12-17T16:41:00;-2.70;99.90
19692;DHT22;42748;50.016;19.890;2022-12-17T16:43:31;-2.70;99.90
19692;DHT22;42748;50.016;19.890;2022-12-17T16:45:58;-2.70;99.90
19692;DHT22;42748;50.016;19.890;2022-12-17T16:48:25;-2.60;99.90
19692;DHT22;42748;50.016;19.890;2022-12-17T16:50:52;-2.70;99.90
19692;DHT22;42748;50.016;19.890;2022-12-17T16:53:19;-2.70;99.90
19692;DHT22;42748;50.016;19.890;2022-12-17T16:55:48;-2.60;99.90
19692;DHT22;42748;50.016;19.890;2022-12-17T16:58:16;-2.60;99.90
19692;DHT22;42748;50.016;19.890;2022-12-17T17:00:43;-2.70;99.90
19692;DHT22;42748;50.016;19.890;2022-12-17T17:03:12;-2.60;99.90
19692;DHT22;42748;50.016;19.890;2022-12-17T17:05:39;-2.60;99.90
19692;DHT22;42748;50.016;19.890;2022-12-17T17:08:06;-2.60;99.90
19692;DHT22;42748;50.016;19.890;2022-12-17T17:10:35;-2.60;99.90
19692;DHT22;42748;50.016;19.890;2022-12-17T17:13:03;-2.60;99.90
19692;DHT22;42748;50.016;19.890;2022-12-17T17:15:30;-2.60;99.90
19692;DHT22;42748;50.016;19.890;2022-12-17T17:17:57;-2.70;99.90
19692;DHT22;42748;50.016;19.890;2022-12-17T17:20:28;-2.70;99.90
19692;DHT22;42748;50.016;19.890;2022-12-17T17:22:58;-2.70;99.90
19692;DHT22;42748;50.016;19.890;2022-12-17T17:25:25;-2.70;99.90
19692;DHT22;42748;50.016;19.890;2022-12-17T17:28:13;-2.60;99.90
19692;DHT22;42748;50.016;19.890;2022-12-17T17:30:40;-2.60;99.90
19692;DHT22;42748;50.016;19.890;2022-12-17T17:33:07;-2.60;99.90
19692;DHT22;42748;50.016;19.890;2022-12-17T17:35:34;-2.70;99.90
19692;DHT22;42748;50.016;19.890;2022-12-17T17:38:00;-2.70;99.90
19692;DHT22;42748;50.016;19.890;2022-12-17T17:40:28;-2.60;99.90
19692;DHT22;42748;50.016;19.890;2022-12-17T17:42:54;-2.60;99.90
19692;DHT22;42748;50.016;19.890;2022-12-17T17:45:21;-2.60;99.90
19692;DHT22;42748;50.016;19.890;2022-12-17T17:47:48;-2.60;99.90
19692;DHT22;42748;50.016;19.890;2022-12-17T17:50:15;-2.60;99.90
19692;DHT22;42748;50.016;19.890;2022-12-17T17:52:42;-2.60;99.90
19692;DHT22;42748;50.016;19.890;2022-12-17T17:55:10;-2.60;99.90
19692;DHT22;42748;50.016;19.890;2022-12-17T17:57:36;-2.60;99.90
19692;DHT22;42748;50.016;19.890;2022-12-17T18:00:04;-2.60;99.90
19692;DHT22;42748;50.016;19.890;2022-12-17T18:02:31;-2.60;99.90
19692;DHT22;42748;50.016;19.890;2022-12-17T18:04:58;-2.60;99.90
19692;DHT22;42748;50.016;19.890;2022-12-17T18:07:25;-2.60;99.90
19692;DHT22;42748;50.016;19.890;2022-12-17T18:09:54;-2.60;99.90
19692;DHT22;42748;50.016;19.890;2022-12-17T18:12:22;-2.60;99.90
19692;DHT22;42748;50.016;19.890;2022-12-17T18:15:07;-2.60;99.90
19692;DHT22;42748;50.016;19.890;2022-12-17T18:17:46;-2.60;99.90
19692;DHT22;42748;50.016;19.890;2022-12-17T18:20:15;-2.60;99.90
19692;DHT22;42748;50.016;19.890;2022-12-17T18:22:43;-2.70;99.90
19692;DHT22;42748;50.016;19.890;2022-12-17T18:25:12;-2.70;99.90